createdAt,value
2023-01-13T00:01:21.244Z,32.30
2023-01-13T00:03:48.987Z,26.50
2023-01-13T00:06:18.911Z,31.50
2023-01-13T00:08:51.379Z,27.75
2023-01-13T00:11:20.153Z,28.67
2023-01-13T00:13:47.636Z,31.95
2023-01-13T00:16:17.496Z,28.38
2023-01-13T00:18:45.866Z,35.75
2023-01-13T00:21:17.295Z,27.60
2023-01-13T00:23:45.022Z,32.65
2023-01-13T00:26:21.859Z,33.22
2023-01-13T00:28:49.741Z,29.83
2023-01-13T00:31:19.704Z,29.98
2023-01-13T00:33:51.180Z,31.52
2023-01-13T00:36:20.601Z,35.60
2023-01-13T00:38:48.291Z,32.22
2023-01-13T00:41:18.225Z,36.33
2023-01-13T00:43:46.418Z,30.70
2023-01-13T00:46:16.679Z,31.00
2023-01-13T00:48:44.784Z,34.83
2023-01-13T00:51:15.911Z,37.00
2023-01-13T00:53:45.831Z,37.70
2023-01-13T00:56:24.413Z,33.58
2023-01-13T00:58:58.836Z,34.13
2023-01-13T01:01:26.502Z,33.95
2023-01-13T01:03:54.571Z,36.50
2023-01-13T01:06:24.483Z,31.52
2023-01-13T01:08:53.252Z,40.45
2023-01-13T01:11:24.185Z,32.10
2023-01-13T01:13:52.781Z,36.30
2023-01-13T01:16:22.900Z,30.88
2023-01-13T01:18:52.462Z,36.28
2023-01-13T01:21:21.138Z,35.67
2023-01-13T01:23:48.608Z,31.90
2023-01-13T01:26:24.587Z,37.10
2023-01-13T01:28:52.756Z,30.58
2023-01-13T01:31:25.867Z,31.23
2023-01-13T01:33:54.859Z,36.53
2023-01-13T01:36:26.293Z,34.75
2023-01-13T01:38:56.609Z,35.90
2023-01-13T01:41:26.654Z,31.98
2023-01-13T01:44:08.063Z,34.45
2023-01-13T01:46:39.186Z,43.80
2023-01-13T01:49:12.599Z,33.50
2023-01-13T01:51:45.810Z,31.42
2023-01-13T01:54:20.378Z,32.10
2023-01-13T01:56:48.321Z,43.30
2023-01-13T01:59:16.188Z,41.53
2023-01-13T02:01:44.509Z,32.78
2023-01-13T02:04:17.390Z,32.75
2023-01-13T02:06:47.599Z,34.85
2023-01-13T02:09:15.833Z,40.17
2023-01-13T02:12:01.817Z,37.60
2023-01-13T02:14:30.693Z,35.47
2023-01-13T02:17:14.588Z,35.30
2023-01-13T02:20:00.259Z,34.50
2023-01-13T02:23:03.298Z,31.55
2023-01-13T02:26:10.134Z,34.63
2023-01-13T02:29:28.537Z,39.55
2023-01-13T02:32:05.807Z,38.53
2023-01-13T02:34:42.452Z,36.10
2023-01-13T02:37:19.168Z,33.00
2023-01-13T02:39:53.235Z,36.63
2023-01-13T02:42:52.746Z,33.90
2023-01-13T02:45:26.949Z,38.15
2023-01-13T02:47:58.613Z,37.22
2023-01-13T02:50:34.620Z,36.10
2023-01-13T02:53:08.874Z,36.60
2023-01-13T02:55:46.939Z,35.75
2023-01-13T02:58:18.040Z,36.15
2023-01-13T03:00:46.585Z,39.33
2023-01-13T03:03:14.351Z,36.10
2023-01-13T03:05:44.122Z,39.67
2023-01-13T03:08:22.882Z,41.60
2023-01-13T03:11:07.613Z,37.70
2023-01-13T03:13:47.748Z,35.45
2023-01-13T03:16:28.380Z,41.30
2023-01-13T03:19:11.659Z,37.00
2023-01-13T03:22:18.169Z,32.83
2023-01-13T03:24:55.182Z,35.40
2023-01-13T03:27:35.817Z,35.20
2023-01-13T03:30:33.567Z,38.55
2023-01-13T03:33:19.707Z,32.70
2023-01-13T03:35:51.287Z,36.92
2023-01-13T03:38:25.511Z,32.63
2023-01-13T03:40:58.187Z,35.75
2023-01-13T03:43:52.631Z,37.28
2023-01-13T03:46:29.898Z,39.42
2023-01-13T03:49:00.087Z,42.00
2023-01-13T03:51:31.888Z,33.30
2023-01-13T03:54:05.809Z,36.20
2023-01-13T03:56:41.801Z,36.55
2023-01-13T03:59:16.685Z,37.92
2023-01-13T04:01:51.258Z,39.13
2023-01-13T04:04:47.820Z,34.63
2023-01-13T04:07:39.964Z,34.13
2023-01-13T04:13:01.413Z,39.42
2023-01-13T04:15:43.074Z,38.50
2023-01-13T04:18:33.202Z,39.83
2023-01-13T04:21:01.872Z,37.05
2023-01-13T04:23:29.843Z,41.10
2023-01-13T04:25:57.452Z,31.90
2023-01-13T04:28:25.484Z,35.45
2023-01-13T04:30:53.366Z,38.83
2023-01-13T04:33:21.444Z,35.20
2023-01-13T04:35:48.945Z,36.42
2023-01-13T04:38:18.955Z,39.03
2023-01-13T04:40:46.714Z,29.25
2023-01-13T04:43:15.856Z,30.73
2023-01-13T04:45:44.181Z,34.40
2023-01-13T04:48:12.033Z,37.45
2023-01-13T04:50:39.805Z,32.70
2023-01-13T04:53:07.417Z,34.83
2023-01-13T04:55:35.351Z,31.77
2023-01-13T04:58:05.042Z,29.50
2023-01-13T05:00:33.155Z,28.77
2023-01-13T05:03:00.912Z,33.10
2023-01-13T05:05:29.366Z,29.73
2023-01-13T05:07:57.848Z,21.80
2023-01-13T05:10:26.375Z,30.05
2023-01-13T05:13:12.326Z,30.02
2023-01-13T05:15:59.599Z,29.85
2023-01-13T05:18:29.147Z,30.95
2023-01-13T05:20:56.688Z,26.30
2023-01-13T05:23:42.622Z,27.75
2023-01-13T05:26:10.112Z,29.40
2023-01-13T05:28:37.488Z,30.35
2023-01-13T05:31:05.280Z,31.85
2023-01-13T05:33:34.901Z,31.40
2023-01-13T05:36:04.212Z,30.73
2023-01-13T05:38:31.669Z,29.27
2023-01-13T05:41:18.789Z,25.92
2023-01-13T05:43:46.476Z,28.27
2023-01-13T05:46:14.946Z,29.52
2023-01-13T05:48:43.239Z,29.23
2023-01-13T05:51:12.421Z,28.80
2023-01-13T05:53:40.983Z,25.23
2023-01-13T05:56:09.445Z,24.73
2023-01-13T05:58:37.224Z,26.27
2023-01-13T06:01:09.609Z,29.77
2023-01-13T06:03:38.105Z,28.33
2023-01-13T06:06:06.153Z,28.45
2023-01-13T06:08:33.587Z,27.25
2023-01-13T06:11:01.039Z,25.50
2023-01-13T06:13:28.748Z,22.35
2023-01-13T06:15:58.286Z,25.50
2023-01-13T06:18:26.770Z,22.52
2023-01-13T06:20:54.759Z,25.63
2023-01-13T06:23:22.643Z,21.70
2023-01-13T06:26:14.496Z,21.92
2023-01-13T06:28:42.326Z,22.67
2023-01-13T06:31:10.768Z,26.38
2023-01-13T06:33:44.575Z,21.58
2023-01-13T06:36:16.833Z,23.60
2023-01-13T06:38:48.301Z,27.60
2023-01-13T06:41:16.990Z,20.63
2023-01-13T06:43:44.916Z,24.00
2023-01-13T06:46:12.348Z,24.90
2023-01-13T06:48:39.826Z,25.58
2023-01-13T06:51:07.389Z,26.23
2023-01-13T06:53:34.813Z,20.88
2023-01-13T06:56:02.309Z,21.92
2023-01-13T06:58:29.796Z,18.30
2023-01-13T07:01:00.630Z,19.42
2023-01-13T07:03:28.124Z,21.52
2023-01-13T07:05:56.459Z,22.42
2023-01-13T07:08:24.630Z,21.70
2023-01-13T07:10:53.077Z,19.98
2023-01-13T07:13:39.682Z,25.75
2023-01-13T07:16:08.536Z,22.33
2023-01-13T07:18:36.677Z,24.73
2023-01-13T07:21:05.928Z,20.08
2023-01-13T07:23:36.630Z,19.75
2023-01-13T07:26:04.617Z,22.67
2023-01-13T07:28:32.857Z,23.95
2023-01-13T07:31:01.183Z,19.75
2023-01-13T07:33:28.720Z,26.13
2023-01-13T07:36:08.591Z,35.50
2023-01-13T07:38:36.319Z,34.13
2023-01-13T07:41:22.155Z,35.17
2023-01-13T07:43:50.368Z,35.42
2023-01-13T07:46:19.080Z,40.10
2023-01-13T07:48:48.101Z,37.72
2023-01-13T07:51:15.991Z,34.92
2023-01-13T07:53:43.442Z,34.80
2023-01-13T07:56:10.808Z,35.22
2023-01-13T07:58:38.456Z,35.78
2023-01-13T08:01:12.280Z,33.83
2023-01-13T08:03:40.435Z,37.92
2023-01-13T08:06:08.398Z,36.28
2023-01-13T08:08:36.171Z,32.28
2023-01-13T08:11:05.806Z,37.58
2023-01-13T08:13:33.283Z,40.72
2023-01-13T08:16:07.574Z,37.80
2023-01-13T08:18:35.884Z,33.40
2023-01-13T08:21:05.879Z,38.58
2023-01-13T08:23:33.617Z,38.40
2023-01-13T08:26:03.314Z,32.40
2023-01-13T08:28:31.485Z,35.92
2023-01-13T08:31:00.752Z,35.10
2023-01-13T08:33:29.152Z,34.63
2023-01-13T08:35:57.188Z,32.60
2023-01-13T08:38:25.139Z,39.40
2023-01-13T08:40:52.677Z,33.38
2023-01-13T08:43:20.090Z,38.75
2023-01-13T08:45:56.764Z,36.10
2023-01-13T08:48:24.153Z,46.28
2023-01-13T08:50:51.531Z,44.30
2023-01-13T08:53:20.305Z,37.20
2023-01-13T08:55:47.720Z,35.33
2023-01-13T08:58:16.271Z,37.67
2023-01-13T09:00:44.242Z,39.42
2023-01-13T09:03:11.920Z,37.38
2023-01-13T09:05:39.823Z,39.15
2023-01-13T09:08:07.417Z,42.78
2023-01-13T09:10:35.831Z,36.00
2023-01-13T09:13:12.092Z,35.72
2023-01-13T09:15:45.387Z,44.22
2023-01-13T09:18:13.450Z,35.85
2023-01-13T09:20:59.495Z,39.97
2023-01-13T09:23:28.125Z,35.90
2023-01-13T09:25:55.661Z,38.83
2023-01-13T09:28:23.104Z,38.20
2023-01-13T09:30:50.584Z,36.78
2023-01-13T09:33:36.686Z,32.85
2023-01-13T09:36:04.279Z,32.90
2023-01-13T09:38:31.848Z,38.28
2023-01-13T09:40:59.291Z,41.80
2023-01-13T09:43:52.495Z,35.33
2023-01-13T09:46:42.907Z,35.95
2023-01-13T09:49:22.785Z,36.50
2023-01-13T09:52:03.451Z,32.22
2023-01-13T09:54:38.828Z,35.13
2023-01-13T09:57:17.031Z,37.40
2023-01-13T09:59:45.095Z,31.30
2023-01-13T10:02:57.878Z,39.60
2023-01-13T10:05:41.879Z,34.90
2023-01-13T10:08:17.397Z,29.45
2023-01-13T10:10:48.502Z,32.25
2023-01-13T10:13:23.721Z,35.90
2023-01-13T10:16:16.399Z,40.70
2023-01-13T10:19:16.170Z,34.38
2023-01-13T10:22:10.713Z,39.70
2023-01-13T10:25:06.111Z,34.80
2023-01-13T10:27:40.853Z,32.25
2023-01-13T10:30:34.181Z,33.65
2023-01-13T10:33:10.120Z,38.78
2023-01-13T10:35:51.404Z,31.92
2023-01-13T10:38:40.456Z,39.50
2023-01-13T10:41:13.987Z,45.53
2023-01-13T10:44:02.340Z,34.63
2023-01-13T10:46:31.877Z,39.72
2023-01-13T10:49:01.738Z,36.72
2023-01-13T10:51:42.237Z,35.03
2023-01-13T10:54:13.002Z,32.97
2023-01-13T10:56:42.860Z,34.58
2023-01-13T10:59:27.031Z,47.75
2023-01-13T11:02:25.953Z,31.38
2023-01-13T11:04:53.994Z,36.28
2023-01-13T11:07:31.693Z,35.22
2023-01-13T11:10:31.509Z,36.67
2023-01-13T11:13:07.090Z,31.13
2023-01-13T11:15:50.941Z,34.83
2023-01-13T11:18:22.362Z,31.58
2023-01-13T11:20:51.869Z,29.40
2023-01-13T11:23:30.005Z,32.58
2023-01-13T11:26:04.675Z,36.45
2023-01-13T11:28:53.381Z,32.92
2023-01-13T11:31:33.611Z,35.67
2023-01-13T11:34:36.087Z,34.58
2023-01-13T11:40:05.951Z,31.50
2023-01-13T11:42:45.838Z,36.78
2023-01-13T11:45:20.357Z,38.83
2023-01-13T11:47:51.126Z,31.02
2023-01-13T11:50:39.765Z,38.10
2023-01-13T11:53:16.190Z,33.38
2023-01-13T11:56:05.707Z,31.98
2023-01-13T11:59:21.530Z,32.95
2023-01-13T12:02:14.479Z,35.60
2023-01-13T12:05:11.786Z,36.17
2023-01-13T12:08:16.545Z,35.25
2023-01-13T12:11:57.081Z,30.55
2023-01-13T12:15:03.630Z,32.92
2023-01-13T12:17:59.051Z,32.90
2023-01-13T12:20:41.586Z,33.13
2023-01-13T12:23:27.062Z,35.03
2023-01-13T12:25:59.735Z,33.08
2023-01-13T12:28:51.453Z,34.88
2023-01-13T12:31:20.994Z,32.70
2023-01-13T12:34:05.159Z,41.20
2023-01-13T12:36:50.977Z,34.53
2023-01-13T12:39:29.548Z,34.00
2023-01-13T12:42:28.266Z,34.38
2023-01-13T12:45:11.072Z,33.42
2023-01-13T12:47:40.157Z,28.17
2023-01-13T12:50:23.798Z,28.60
2023-01-13T12:52:56.515Z,24.60
2023-01-13T12:55:27.736Z,34.20
2023-01-13T12:57:59.566Z,38.03
2023-01-13T13:00:42.297Z,34.00
2023-01-13T13:03:12.749Z,25.38
2023-01-13T13:05:55.109Z,23.45
2023-01-13T13:08:50.439Z,23.83
2023-01-13T13:11:41.037Z,19.52
2023-01-13T13:14:13.832Z,21.27
2023-01-13T13:16:47.837Z,21.85
2023-01-13T13:19:18.339Z,17.50
2023-01-13T13:22:18.017Z,20.52
2023-01-13T13:24:48.619Z,17.60
2023-01-13T13:27:24.792Z,20.20
2023-01-13T13:30:04.737Z,21.50
2023-01-13T13:32:38.463Z,19.27
2023-01-13T13:35:23.896Z,19.35
2023-01-13T13:38:19.636Z,17.85
2023-01-13T13:41:06.489Z,23.10
2023-01-13T13:44:02.240Z,19.65
2023-01-13T13:46:47.982Z,19.98
2023-01-13T13:49:21.593Z,21.05
2023-01-13T13:51:59.998Z,20.73
2023-01-13T13:54:28.047Z,19.95
2023-01-13T13:56:55.718Z,45.28
2023-01-13T13:59:26.091Z,43.22
2023-01-13T14:02:03.976Z,18.90
2023-01-13T14:04:35.586Z,23.00
2023-01-13T14:07:18.076Z,20.48
2023-01-13T14:09:56.607Z,19.63
2023-01-13T14:12:26.077Z,15.55
2023-01-13T14:14:57.069Z,18.75
2023-01-13T14:17:29.954Z,20.07
2023-01-13T14:20:14.798Z,20.17
2023-01-13T14:22:48.012Z,18.13
2023-01-13T14:25:34.436Z,16.52
2023-01-13T14:28:17.019Z,20.02
2023-01-13T14:30:44.717Z,17.92
2023-01-13T14:33:18.352Z,19.67
2023-01-13T14:36:16.810Z,22.55
2023-01-13T14:38:47.310Z,19.13
2023-01-13T14:41:20.821Z,19.08
2023-01-13T14:43:50.075Z,19.58
2023-01-13T14:46:18.093Z,22.42
2023-01-13T14:48:48.270Z,21.23
2023-01-13T14:51:27.934Z,17.17
2023-01-13T14:53:57.275Z,16.10
2023-01-13T14:56:49.167Z,23.63
2023-01-13T14:59:42.769Z,21.33
2023-01-13T15:02:25.399Z,20.83
2023-01-13T15:04:59.056Z,15.10
2023-01-13T15:07:27.669Z,17.30
2023-01-13T15:09:58.494Z,17.45
2023-01-13T15:12:39.512Z,19.30
2023-01-13T15:15:20.451Z,16.95
2023-01-13T15:17:47.980Z,15.35
2023-01-13T15:20:17.241Z,17.15
2023-01-13T15:22:44.844Z,18.17
2023-01-13T15:25:12.326Z,21.13
2023-01-13T15:27:39.753Z,20.98
2023-01-13T15:30:15.779Z,17.02
2023-01-13T15:32:43.407Z,20.00
2023-01-13T15:35:14.258Z,21.10
2023-01-13T15:37:43.513Z,21.17
2023-01-13T15:40:15.146Z,22.15
2023-01-13T15:43:01.144Z,21.02
2023-01-13T15:45:47.487Z,24.63
2023-01-13T15:48:15.102Z,20.13
2023-01-13T15:50:42.703Z,19.80
2023-01-13T15:53:14.542Z,22.15
2023-01-13T15:55:44.976Z,25.00
2023-01-13T15:58:13.931Z,25.83
2023-01-13T16:00:42.570Z,22.67
2023-01-13T16:03:14.308Z,24.85
2023-01-13T16:05:42.669Z,26.85
2023-01-13T16:08:18.848Z,26.80
2023-01-13T16:10:46.577Z,32.58
2023-01-13T16:13:14.704Z,29.23
2023-01-13T16:15:44.860Z,36.47
2023-01-13T16:18:21.955Z,34.90
2023-01-13T16:20:52.945Z,32.75
2023-01-13T16:23:20.621Z,27.77
2023-01-13T16:25:49.060Z,31.92
2023-01-13T16:28:26.152Z,28.08
2023-01-13T16:30:54.267Z,25.90
2023-01-13T16:33:21.986Z,29.08
2023-01-13T16:36:09.780Z,33.10
2023-01-13T16:38:37.946Z,27.75
2023-01-13T16:41:05.541Z,31.05
2023-01-13T16:43:33.644Z,28.73
2023-01-13T16:46:01.120Z,29.73
2023-01-13T16:48:28.502Z,32.40
2023-01-13T16:50:56.068Z,31.80
2023-01-13T16:53:23.560Z,36.78
2023-01-13T16:55:50.937Z,35.28
2023-01-13T16:58:20.491Z,32.58
2023-01-13T17:00:48.274Z,35.58
2023-01-13T17:03:16.651Z,31.00
2023-01-13T17:05:47.576Z,32.35
2023-01-13T17:08:17.839Z,34.78
2023-01-13T17:10:46.738Z,37.80
2023-01-13T17:13:16.735Z,36.58
2023-01-13T17:15:45.639Z,37.65
2023-01-13T17:18:13.691Z,38.75
2023-01-13T17:20:41.707Z,33.47
2023-01-13T17:23:09.031Z,35.42
2023-01-13T17:25:36.379Z,36.50
2023-01-13T17:28:03.946Z,34.33
2023-01-13T17:30:31.366Z,37.10
2023-01-13T17:32:58.774Z,37.92
2023-01-13T17:35:26.218Z,47.75
2023-01-13T17:37:54.112Z,65.50
2023-01-13T17:40:21.631Z,48.88
2023-01-13T17:42:49.028Z,38.60
2023-01-13T17:45:16.622Z,34.00
2023-01-13T17:47:44.097Z,39.05
2023-01-13T17:50:11.614Z,37.38
2023-01-13T17:52:39.086Z,35.90
2023-01-13T17:55:06.532Z,35.15
2023-01-13T17:57:35.475Z,33.55
2023-01-13T18:00:04.540Z,33.72
2023-01-13T18:02:39.675Z,36.65
2023-01-13T18:05:07.621Z,34.30
2023-01-13T18:07:35.006Z,38.75
2023-01-13T18:10:02.364Z,35.72
2023-01-13T18:12:29.937Z,35.38
2023-01-13T18:14:57.272Z,34.90
2023-01-13T18:17:24.643Z,34.33
2023-01-13T18:20:10.708Z,31.77
2023-01-13T18:22:56.876Z,31.58
2023-01-13T18:25:42.868Z,31.85
2023-01-13T18:28:10.299Z,34.42
2023-01-13T18:30:37.754Z,35.97
2023-01-13T18:33:05.213Z,32.30
2023-01-13T18:35:32.693Z,33.00
2023-01-13T18:38:00.115Z,36.45
2023-01-13T18:40:27.813Z,40.65
2023-01-13T18:42:55.706Z,35.20
2023-01-13T18:45:31.589Z,38.58
2023-01-13T18:48:02.049Z,37.97
2023-01-13T18:50:30.086Z,31.50
2023-01-13T18:52:57.562Z,39.13
2023-01-13T18:55:25.562Z,34.95
2023-01-13T18:57:53.728Z,36.78
2023-01-13T19:00:22.368Z,32.92
2023-01-13T19:05:35.308Z,33.15
2023-01-13T19:08:03.855Z,37.03
2023-01-13T19:10:32.690Z,33.38
2023-01-13T19:13:01.870Z,34.40
2023-01-13T19:15:29.943Z,39.40
2023-01-13T19:17:57.539Z,38.30
2023-01-13T19:20:25.003Z,36.63
2023-01-13T19:22:54.542Z,35.65
2023-01-13T19:25:22.116Z,37.83
2023-01-13T19:27:49.528Z,36.65
2023-01-13T19:30:17.633Z,39.70
2023-01-13T19:32:44.998Z,40.45
2023-01-13T19:35:13.280Z,36.10
2023-01-13T19:37:41.081Z,40.30
2023-01-13T19:40:10.302Z,37.72
2023-01-13T19:42:56.378Z,34.33
2023-01-13T19:45:26.804Z,37.20
2023-01-13T19:47:55.709Z,33.92
2023-01-13T19:50:24.253Z,38.70
2023-01-13T19:52:52.072Z,36.20
2023-01-13T19:55:19.839Z,36.55
2023-01-13T19:57:47.346Z,44.17
2023-01-13T20:00:20.562Z,36.55
2023-01-13T20:02:49.917Z,37.20
2023-01-13T20:05:26.026Z,37.97
2023-01-13T20:07:54.085Z,39.65
2023-01-13T20:10:23.241Z,35.35
2023-01-13T20:12:50.823Z,33.75
2023-01-13T20:15:18.229Z,31.92
2023-01-13T20:17:45.687Z,36.53
2023-01-13T20:20:14.977Z,36.22
2023-01-13T20:22:42.723Z,34.72
2023-01-13T20:25:11.410Z,34.50
2023-01-13T20:27:39.416Z,36.50
2023-01-13T20:30:09.605Z,35.63
2023-01-13T20:32:37.971Z,34.80
2023-01-13T20:35:07.322Z,27.90
2023-01-13T20:37:37.447Z,29.63
2023-01-13T20:40:06.374Z,28.40
2023-01-13T20:42:42.485Z,29.90
2023-01-13T20:45:11.010Z,28.08
2023-01-13T20:47:38.510Z,25.73
2023-01-13T20:50:07.024Z,31.27
2023-01-13T20:52:35.313Z,35.15
2023-01-13T20:55:02.857Z,31.10
2023-01-13T20:57:31.099Z,28.45
2023-01-13T21:00:00.106Z,30.05
2023-01-13T21:02:29.034Z,22.67
2023-01-13T21:04:57.452Z,25.88
2023-01-13T21:07:25.094Z,29.85
2023-01-13T21:09:52.723Z,29.15
2023-01-13T21:12:40.021Z,23.27
2023-01-13T21:15:19.060Z,24.73
2023-01-13T21:18:27.752Z,23.13
2023-01-13T21:21:11.513Z,23.55
2023-01-13T21:23:43.186Z,22.35
2023-01-13T21:26:11.597Z,23.15
2023-01-13T21:28:39.127Z,24.80
2023-01-13T21:31:09.237Z,23.52
2023-01-13T21:33:37.362Z,22.15
2023-01-13T21:36:09.406Z,25.88
2023-01-13T21:38:36.885Z,26.08
2023-01-13T21:41:07.369Z,30.23
2023-01-13T21:43:55.559Z,20.55
2023-01-13T21:46:42.995Z,23.42
2023-01-13T21:49:10.395Z,23.35
2023-01-13T21:51:37.771Z,23.02
2023-01-13T21:54:05.234Z,18.98
2023-01-13T21:56:32.626Z,23.38
2023-01-13T21:58:59.910Z,22.90
2023-01-13T22:01:27.375Z,37.10
2023-01-13T22:04:12.839Z,25.92
2023-01-13T22:06:40.351Z,21.30
2023-01-13T22:09:07.726Z,22.17
2023-01-13T22:11:35.053Z,20.83
2023-01-13T22:14:13.719Z,24.73
2023-01-13T22:16:49.032Z,22.60
2023-01-13T22:19:18.305Z,20.58
2023-01-13T22:21:45.675Z,22.60
2023-01-13T22:24:13.410Z,22.25
2023-01-13T22:26:40.783Z,21.15
2023-01-13T22:29:08.161Z,24.10
2023-01-13T22:31:35.631Z,21.90
2023-01-13T22:34:03.051Z,25.77
2023-01-13T22:36:30.383Z,23.30
2023-01-13T22:39:00.581Z,19.85
2023-01-13T22:41:28.050Z,22.52
2023-01-13T22:43:55.406Z,22.80
2023-01-13T22:46:23.693Z,18.90
2023-01-13T22:48:53.794Z,23.23
2023-01-13T22:51:22.734Z,18.92
2023-01-13T22:53:51.181Z,22.05
2023-01-13T22:56:21.612Z,21.55
2023-01-13T22:59:00.354Z,22.88
2023-01-13T23:01:30.505Z,19.92
2023-01-13T23:03:58.839Z,20.13
2023-01-13T23:06:27.592Z,22.83
2023-01-13T23:08:55.743Z,20.75
2023-01-13T23:11:26.894Z,22.75
2023-01-13T23:14:00.114Z,21.35
2023-01-13T23:16:28.995Z,23.05
2023-01-13T23:18:56.841Z,21.33
2023-01-13T23:21:27.603Z,21.48
2023-01-13T23:23:57.251Z,20.88
2023-01-13T23:26:27.198Z,22.17
2023-01-13T23:29:02.215Z,21.33
2023-01-13T23:31:29.605Z,23.80
2023-01-13T23:33:57.270Z,25.00
2023-01-13T23:36:26.504Z,21.05
2023-01-13T23:38:54.265Z,21.40
2023-01-13T23:41:24.005Z,27.05
2023-01-13T23:43:52.519Z,25.00
2023-01-13T23:46:20.359Z,21.65
2023-01-13T23:48:48.562Z,20.83
2023-01-13T23:51:16.200Z,24.63
2023-01-13T23:53:46.127Z,24.75
2023-01-13T23:56:16.690Z,25.67
2023-01-13T23:58:44.375Z,26.27
